Time;durP1;ratioP1;P1;durP2;ratioP2;P2;SDS_P1;SDS_P2;PMS_P1;PMS_P2;Temp;Humidity;BMP_temperature;BMP_pressure;BME280_temperature;BME280_humidity;BME280_pressure;Samples;Min_cycle;Max_cycle;Signal;HPM_P1;HPM_P2
2023/01/02 00:02:50;;;;;;;;;;;11.20;1.00;;;;;;5043680;28;19913;-84
2023/01/02 00:05:44;;;;;;;;;;;11.20;1.00;;;;;;5043792;28;19946;-84
2023/01/02 00:11:12;;;;;;;;;;;11.10;1.00;;;;;;5042950;28;20433;-78
2023/01/02 00:13:56;;;;;;;;;;;11.10;1.00;;;;;;5048999;28;19999;-78
2023/01/02 00:16:44;;;;;;;;;;;11.10;1.00;;;;;;5054359;28;19970;-78
2023/01/02 00:19:20;;;;;;;;;;;11.10;1.00;;;;;;5044471;28;19913;-78
2023/01/02 00:21:50;;;;;;;;;;;11.00;1.00;;;;;;5034406;28;19920;-79
2023/01/02 00:24:44;;;;;;;;;;;11.00;1.00;;;;;;5034279;28;20099;-79
2023/01/02 00:27:20;;;;;;;;;;;11.00;1.00;;;;;;5043575;28;19948;-78
2023/01/02 00:29:50;;;;;;;;;;;11.00;1.00;;;;;;5049799;28;19920;-78
2023/01/02 00:32:32;;;;;;;;;;;10.90;1.00;;;;;;5057682;28;19970;-78
2023/01/02 00:35:08;;;;;;;;;;;10.80;1.00;;;;;;5057285;28;19954;-79
2023/01/02 00:37:50;;;;;;;;;;;10.80;1.00;;;;;;5054364;28;20356;-79
2023/01/02 00:40:20;;;;;;;;;;;10.80;1.00;;;;;;5044185;28;20391;-79
2023/01/02 00:42:50;;;;;;;;;;;10.80;1.00;;;;;;5062768;28;20002;-78
2023/01/02 00:45:15;;;;;;;;;;;10.80;1.00;;;;;;5032856;28;19927;-79
2023/01/02 00:47:50;;;;;;;;;;;10.80;1.00;;;;;;5045446;28;19909;-80
2023/01/02 00:50:15;;;;;;;;;;;10.70;1.00;;;;;;5033718;28;19917;-78
2023/01/02 00:52:41;;;;;;;;;;;10.80;1.00;;;;;;5033103;28;20285;-78
2023/01/02 00:55:20;;;;;;;;;;;10.80;1.00;;;;;;5032835;28;19928;-84
2023/01/02 00:57:45;;;;;;;;;;;10.80;1.00;;;;;;5046938;28;19921;-84
2023/01/02 01:03:14;;;;;;;;;;;10.80;1.00;;;;;;5037284;28;20034;-84
2023/01/02 01:05:50;;;;;;;;;;;10.70;1.00;;;;;;5041161;28;20003;-84
2023/01/02 01:08:20;;;;;;;;;;;10.70;1.00;;;;;;5054538;28;19913;-84
2023/01/02 01:10:50;;;;;;;;;;;10.70;1.00;;;;;;5054508;28;19913;-79
2023/01/02 01:13:20;;;;;;;;;;;10.70;1.00;;;;;;5052522;28;19920;-79
2023/01/02 01:15:46;;;;;;;;;;;10.70;1.00;;;;;;5033842;28;20067;-80
2023/01/02 01:18:20;;;;;;;;;;;10.70;1.00;;;;;;5046884;28;20007;-78
2023/01/02 01:20:50;;;;;;;;;;;10.70;1.00;;;;;;5033861;28;19909;-78
2023/01/02 01:23:38;;;;;;;;;;;10.70;1.00;;;;;;5049507;28;19924;-78
2023/01/02 01:26:08;;;;;;;;;;;10.60;1.00;;;;;;5040845;28;19913;-84
2023/01/02 01:28:50;;;;;;;;;;;10.60;1.00;;;;;;5048015;28;20365;-84
2023/01/02 01:31:20;;;;;;;;;;;10.60;1.00;;;;;;5036227;28;19925;-84
2023/01/02 01:34:08;;;;;;;;;;;10.70;1.00;;;;;;5045188;28;19923;-83
2023/01/02 01:36:50;;;;;;;;;;;10.70;1.00;;;;;;5034354;28;19920;-84
2023/01/02 01:39:20;;;;;;;;;;;10.60;1.00;;;;;;5046467;28;20015;-84
2023/01/02 01:41:50;;;;;;;;;;;10.60;1.00;;;;;;5045026;28;19913;-79
2023/01/02 01:44:41;;;;;;;;;;;10.60;1.00;;;;;;5039097;28;20440;-78
2023/01/02 01:53:26;;;;;;;;;;;10.60;1.00;;;;;;5036910;28;19920;-78
2023/01/02 01:56:09;;;;;;;;;;;10.60;1.00;;;;;;5049526;28;20360;-84
2023/01/02 01:58:51;;;;;;;;;;;10.60;1.00;;;;;;5042708;28;19920;-84
2023/01/02 02:01:50;;;;;;;;;;;10.60;1.00;;;;;;5052986;28;19913;-84
2023/01/02 02:04:50;;;;;;;;;;;10.50;1.00;;;;;;5041815;28;19920;-84
2023/01/02 02:07:50;;;;;;;;;;;10.50;1.00;;;;;;5053182;28;19909;-84
2023/01/02 02:10:50;;;;;;;;;;;10.50;1.00;;;;;;5041408;28;19909;-84
2023/01/02 02:13:20;;;;;;;;;;;10.50;1.00;;;;;;5039065;28;19987;-84
2023/01/02 02:15:55;;;;;;;;;;;10.50;1.00;;;;;;5056045;28;20356;-84
2023/01/02 02:21:41;;;;;;;;;;;10.50;1.00;;;;;;5039129;28;20429;-85
2023/01/02 02:27:32;;;;;;;;;;;10.40;1.00;;;;;;5041267;28;19920;-84
2023/01/02 02:30:03;;;;;;;;;;;10.30;1.00;;;;;;5049544;28;19924;-84
2023/01/02 02:32:50;;;;;;;;;;;10.30;1.00;;;;;;5054491;28;19958;-84
2023/01/02 02:35:50;;;;;;;;;;;10.20;1.00;;;;;;5037117;28;19959;-84
2023/01/02 02:38:50;;;;;;;;;;;10.20;1.00;;;;;;5047084;28;20430;-84
2023/01/02 02:41:33;;;;;;;;;;;10.20;1.00;;;;;;5050126;28;19913;-78
2023/01/02 02:44:05;;;;;;;;;;;10.10;1.00;;;;;;5052852;28;19909;-78
2023/01/02 02:46:37;;;;;;;;;;;10.10;1.00;;;;;;5039092;28;19908;-78
2023/01/02 02:49:21;;;;;;;;;;;10.10;1.00;;;;;;5045377;28;20046;-78
2023/01/02 02:51:55;;;;;;;;;;;10.10;1.00;;;;;;5054505;28;19935;-79
2023/01/02 02:54:23;;;;;;;;;;;10.10;1.00;;;;;;5067294;28;19945;-79
2023/01/02 02:57:20;;;;;;;;;;;10.10;1.00;;;;;;5041299;28;19961;-84
2023/01/02 02:59:50;;;;;;;;;;;10.20;1.00;;;;;;5035004;28;19909;-84
2023/01/02 03:02:20;;;;;;;;;;;10.10;1.00;;;;;;5055379;28;19912;-84
2023/01/02 03:04:53;;;;;;;;;;;10.10;1.00;;;;;;5064583;28;19916;-84
2023/01/02 03:07:32;;;;;;;;;;;10.20;1.00;;;;;;5037873;28;20004;-84
2023/01/02 03:13:20;;;;;;;;;;;10.30;1.00;;;;;;5035947;28;19955;-79
2023/01/02 03:15:45;;;;;;;;;;;10.30;1.00;;;;;;5038934;28;20010;-78
2023/01/02 03:18:20;;;;;;;;;;;10.30;1.00;;;;;;5034346;28;19952;-78
2023/01/02 03:21:10;;;;;;;;;;;10.40;1.00;;;;;;5036571;28;20288;-78
2023/01/02 03:23:50;;;;;;;;;;;10.40;1.00;;;;;;5033552;28;19955;-79
2023/01/02 03:26:50;;;;;;;;;;;10.40;1.00;;;;;;5054151;28;19948;-84
2023/01/02 03:29:50;;;;;;;;;;;10.50;1.00;;;;;;5048519;28;19920;-84
2023/01/02 03:32:26;;;;;;;;;;;10.50;1.00;;;;;;5043728;28;19944;-84
2023/01/02 03:35:14;;;;;;;;;;;10.50;1.00;;;;;;5071274;28;19909;-84
2023/01/02 03:37:53;;;;;;;;;;;10.50;1.00;;;;;;5049617;28;19913;-84
2023/01/02 03:40:25;;;;;;;;;;;10.50;1.00;;;;;;5036665;28;20003;-84
2023/01/02 03:42:58;;;;;;;;;;;10.50;1.00;;;;;;5035587;28;20431;-79
2023/01/02 03:45:30;;;;;;;;;;;10.60;1.00;;;;;;5037911;28;20003;-78
2023/01/02 03:47:56;;;;;;;;;;;10.60;1.00;;;;;;5033729;28;19914;-79
2023/01/02 03:50:50;;;;;;;;;;;10.60;1.00;;;;;;5043577;28;20008;-78
2023/01/02 03:53:20;;;;;;;;;;;10.50;1.00;;;;;;5041432;28;19924;-79
2023/01/02 03:56:00;;;;;;;;;;;10.50;1.00;;;;;;5051766;28;19916;-79
2023/01/02 03:58:50;;;;;;;;;;;10.50;1.00;;;;;;5043033;28;20538;-80
2023/01/02 04:01:38;;;;;;;;;;;10.40;1.00;;;;;;5043155;28;20497;-79
2023/01/02 04:04:32;;;;;;;;;;;10.40;1.00;;;;;;5040047;28;19909;-79
2023/01/02 04:06:59;;;;;;;;;;;10.30;1.00;;;;;;5033988;28;20425;-79
2023/01/02 04:09:39;;;;;;;;;;;10.30;1.00;;;;;;5034798;28;19909;-78
2023/01/02 04:12:32;;;;;;;;;;;10.30;1.00;;;;;;5034885;28;20468;-84
2023/01/02 04:15:05;;;;;;;;;;;10.30;1.00;;;;;;5039597;28;19909;-84
2023/01/02 04:20:40;;;;;;;;;;;10.40;1.00;;;;;;5034361;28;20384;-84
2023/01/02 04:26:11;;;;;;;;;;;10.40;1.00;;;;;;5040943;28;19919;-84
2023/01/02 04:28:38;;;;;;;;;;;10.40;1.00;;;;;;5043642;28;20280;-79
2023/01/02 04:31:04;;;;;;;;;;;10.50;1.00;;;;;;5046721;28;20307;-79
2023/01/02 04:33:56;;;;;;;;;;;10.50;1.00;;;;;;5041266;28;19916;-79
2023/01/02 04:36:26;;;;;;;;;;;10.50;1.00;;;;;;5052923;28;19958;-78
2023/01/02 04:39:02;;;;;;;;;;;10.50;1.00;;;;;;5046570;28;19925;-79
2023/01/02 04:41:32;;;;;;;;;;;10.50;1.00;;;;;;5043557;28;19910;-80
2023/01/02 04:44:26;;;;;;;;;;;10.50;1.00;;;;;;5052397;28;20392;-79
2023/01/02 04:46:56;;;;;;;;;;;10.50;1.00;;;;;;5047443;28;19909;-79
2023/01/02 04:49:26;;;;;;;;;;;10.60;1.00;;;;;;5034223;28;19913;-78
2023/01/02 04:51:52;;;;;;;;;;;10.60;1.00;;;;;;5048422;28;20360;-79
2023/01/02 04:54:17;;;;;;;;;;;10.60;1.00;;;;;;5051636;28;19912;-79
2023/01/02 04:59:46;;;;;;;;;;;10.70;1.00;;;;;;5034774;28;19923;-84
2023/01/02 05:05:15;;;;;;;;;;;10.80;1.00;;;;;;5038976;28;19936;-84
2023/01/02 05:10:43;;;;;;;;;;;10.70;1.00;;;;;;5036963;28;19919;-84
2023/01/02 05:13:21;;;;;;;;;;;10.70;1.00;;;;;;5042215;28;19909;-80
2023/01/02 05:15:54;;;;;;;;;;;10.70;1.00;;;;;;5045890;28;19975;-79
2023/01/02 05:18:28;;;;;;;;;;;10.70;1.00;;;;;;5039713;28;19970;-82
2023/01/02 05:24:20;;;;;;;;;;;10.70;1.00;;;;;;5048543;28;20292;-81
2023/01/02 05:26:51;;;;;;;;;;;10.70;1.00;;;;;;5050957;28;19963;-81
2023/01/02 05:29:21;;;;;;;;;;;10.70;1.00;;;;;;5043851;28;19967;-88
2023/01/02 05:31:46;;;;;;;;;;;10.70;1.00;;;;;;5036719;28;19921;-87
2023/01/02 05:34:21;;;;;;;;;;;10.70;1.00;;;;;;5053721;28;19915;-87
2023/01/02 05:39:49;;;;;;;;;;;10.60;1.00;;;;;;5046499;28;19964;-87
2023/01/02 05:45:21;;;;;;;;;;;10.60;1.00;;;;;;5050097;28;19919;-87
2023/01/02 05:48:20;;;;;;;;;;;10.70;1.00;;;;;;5043397;28;19913;-88
2023/01/02 05:50:51;;;;;;;;;;;10.70;1.00;;;;;;5055281;28;19916;-85
2023/01/02 05:53:38;;;;;;;;;;;10.70;1.00;;;;;;5051540;28;20289;-81
2023/01/02 05:56:10;;;;;;;;;;;10.70;1.00;;;;;;5039772;28;19940;-78
2023/01/02 05:58:37;;;;;;;;;;;10.70;1.00;;;;;;5037436;28;19914;-77
2023/01/02 06:01:22;;;;;;;;;;;10.70;1.00;;;;;;5036949;28;19913;-77
2023/01/02 06:03:52;;;;;;;;;;;10.70;1.00;;;;;;5037235;28;19909;-77
2023/01/02 06:06:22;;;;;;;;;;;10.80;1.00;;;;;;5036064;28;19917;-78
2023/01/02 06:08:51;;;;;;;;;;;10.80;1.00;;;;;;5038254;28;20354;-80
2023/01/02 06:11:20;;;;;;;;;;;10.80;1.00;;;;;;5051667;28;19912;-77
2023/01/02 06:13:57;;;;;;;;;;;10.80;1.00;;;;;;5040745;28;20007;-77
2023/01/02 06:16:33;;;;;;;;;;;10.80;1.00;;;;;;5042816;28;19909;-77
2023/01/02 06:18:58;;;;;;;;;;;10.80;1.00;;;;;;5044564;28;19922;-77
2023/01/02 06:21:50;;;;;;;;;;;10.90;1.00;;;;;;5041283;28;19909;-78
2023/01/02 06:24:16;;;;;;;;;;;10.90;1.00;;;;;;5036546;28;19922;-77
2023/01/02 06:26:57;;;;;;;;;;;10.90;1.00;;;;;;5041009;28;20037;-78
2023/01/02 06:29:22;;;;;;;;;;;10.80;1.00;;;;;;5040150;28;19913;-77
2023/01/02 06:31:48;;;;;;;;;;;10.80;1.00;;;;;;5037301;28;19924;-77
2023/01/02 06:34:13;;;;;;;;;;;10.70;1.00;;;;;;5047612;28;19909;-78
2023/01/02 06:36:51;;;;;;;;;;;10.80;1.00;;;;;;5045206;28;20299;-77
2023/01/02 06:39:27;;;;;;;;;;;10.80;1.00;;;;;;5041757;28;19924;-78
2023/01/02 06:42:09;;;;;;;;;;;10.90;1.00;;;;;;5055781;28;19909;-77
2023/01/02 06:44:34;;;;;;;;;;;10.90;1.00;;;;;;5037819;28;19917;-72
2023/01/02 06:47:00;;;;;;;;;;;11.00;1.00;;;;;;5048864;28;20383;-72
2023/01/02 06:49:25;;;;;;;;;;;11.00;1.00;;;;;;5037344;28;20280;-72
2023/01/02 06:51:51;;;;;;;;;;;11.00;1.00;;;;;;5046260;28;19952;-73
2023/01/02 06:54:21;;;;;;;;;;;10.90;1.00;;;;;;5036368;28;19913;-73
2023/01/02 06:56:51;;;;;;;;;;;11.00;1.00;;;;;;5026373;28;19913;-72
2023/01/02 06:59:21;;;;;;;;;;;11.00;1.00;;;;;;5039553;28;19966;-73
2023/01/02 07:01:46;;;;;;;;;;;11.00;1.00;;;;;;5044055;28;19916;-73
2023/01/02 07:04:15;;;;;;;;;;;11.00;1.00;;;;;;5040524;28;19935;-73
2023/01/02 07:06:45;;;;;;;;;;;11.00;1.00;;;;;;5046601;28;19959;-73
2023/01/02 07:09:10;;;;;;;;;;;11.00;1.00;;;;;;5041915;28;19948;-73
2023/01/02 07:11:37;;;;;;;;;;;11.00;1.00;;;;;;5038856;28;19994;-73
2023/01/02 07:14:21;;;;;;;;;;;11.00;1.00;;;;;;5036937;28;20278;-77
2023/01/02 07:16:51;;;;;;;;;;;11.00;1.00;;;;;;5036567;28;20000;-78
2023/01/02 07:19:33;;;;;;;;;;;11.10;1.00;;;;;;5035642;28;19913;-78
2023/01/02 07:21:58;;;;;;;;;;;11.10;1.00;;;;;;5047526;28;20556;-77
2023/01/02 07:24:24;;;;;;;;;;;11.10;1.00;;;;;;5051685;28;19920;-78
2023/01/02 07:26:51;;;;;;;;;;;11.10;1.00;;;;;;5034488;28;20276;-77
2023/01/02 07:29:21;;;;;;;;;;;11.10;1.00;;;;;;5047585;28;19919;-85
2023/01/02 07:31:50;;;;;;;;;;;11.00;1.00;;;;;;5037356;28;19927;-79
2023/01/02 07:34:51;;;;;;;;;;;11.10;1.00;;;;;;5038138;28;19913;-77
2023/01/02 07:37:17;;;;;;;;;;;11.20;1.00;;;;;;5038646;28;20352;-77
2023/01/02 07:39:51;;;;;;;;;;;11.30;1.00;;;;;;5036965;28;19913;-77
2023/01/02 07:42:16;;;;;;;;;;;11.40;1.00;;;;;;5050795;28;19919;-76
2023/01/02 07:44:57;;;;;;;;;;;11.40;1.00;;;;;;5047175;28;20205;-77
2023/01/02 07:47:22;;;;;;;;;;;11.40;1.00;;;;;;5043357;28;19909;-76
2023/01/02 07:49:51;;;;;;;;;;;11.50;1.00;;;;;;5049553;28;19916;-77
2023/01/02 07:52:45;;;;;;;;;;;11.60;1.00;;;;;;5040766;28;19913;-77
2023/01/02 07:55:15;;;;;;;;;;;11.70;1.00;;;;;;5052217;28;20069;-77
2023/01/02 07:57:57;;;;;;;;;;;11.70;1.00;;;;;;5049072;28;19908;-76
2023/01/02 08:00:39;;;;;;;;;;;11.80;1.00;;;;;;5051087;28;20043;-79
2023/01/02 08:03:15;;;;;;;;;;;11.90;1.00;;;;;;5038788;28;19913;-79
2023/01/02 08:05:40;;;;;;;;;;;12.00;1.00;;;;;;5048018;28;19913;-79
2023/01/02 08:08:06;;;;;;;;;;;12.10;1.00;;;;;;5038436;28;19968;-79
2023/01/02 08:10:50;;;;;;;;;;;12.20;1.00;;;;;;5041423;28;19958;-79
2023/01/02 08:13:21;;;;;;;;;;;12.30;1.00;;;;;;5036784;28;19920;-81
2023/01/02 08:16:04;;;;;;;;;;;12.40;1.00;;;;;;5050834;28;19920;-79
2023/01/02 08:18:33;;;;;;;;;;;12.60;1.00;;;;;;5066118;28;20006;-80
2023/01/02 08:24:03;;;;;;;;;;;12.70;1.00;;;;;;5041153;28;20007;-79
2023/01/02 08:26:33;;;;;;;;;;;12.80;1.00;;;;;;5045043;28;19917;-79
2023/01/02 08:29:02;;;;;;;;;;;12.90;1.00;;;;;;5043298;28;19920;-77
2023/01/02 08:34:51;;;;;;;;;;;13.10;1.00;;;;;;5044410;28;20449;-78
2023/01/02 08:37:27;;;;;;;;;;;13.30;1.00;;;;;;5042681;28;19974;-78
2023/01/02 08:40:21;;;;;;;;;;;13.30;1.00;;;;;;5055716;28;19924;-79
2023/01/02 08:43:05;;;;;;;;;;;13.40;1.00;;;;;;5043110;28;19952;-83
2023/01/02 08:45:30;;;;;;;;;;;13.40;1.00;;;;;;5044359;28;20430;-79
2023/01/02 08:47:56;;;;;;;;;;;13.50;1.00;;;;;;5034144;28;19996;-79
2023/01/02 08:50:33;;;;;;;;;;;13.60;1.00;;;;;;5034380;28;19914;-79
2023/01/02 08:56:40;;;;;;;;;;;13.80;1.00;;;;;;5063620;28;19947;-79
2023/01/02 08:59:07;;;;;;;;;;;13.80;1.00;;;;;;5047637;28;19944;-79
2023/01/02 09:01:33;;;;;;;;;;;13.90;1.00;;;;;;5040333;28;19920;-76
2023/01/02 09:03:59;;;;;;;;;;;13.90;1.00;;;;;;5039508;28;19909;-76
2023/01/02 09:06:51;;;;;;;;;;;13.90;1.00;;;;;;5039066;28;20002;-76
2023/01/02 09:09:17;;;;;;;;;;;14.00;1.00;;;;;;5044442;28;20368;-76
2023/01/02 09:11:51;;;;;;;;;;;14.10;1.00;;;;;;5052821;28;19908;-76
2023/01/02 09:14:22;;;;;;;;;;;14.10;1.00;;;;;;5039499;28;20414;-76
2023/01/02 09:16:51;;;;;;;;;;;14.10;1.00;;;;;;5034092;28;19909;-76
2023/01/02 09:19:17;;;;;;;;;;;14.30;1.00;;;;;;5050446;28;20283;-76
2023/01/02 09:21:45;;;;;;;;;;;14.20;1.00;;;;;;5053162;28;20357;-79
2023/01/02 09:24:21;;;;;;;;;;;14.30;1.00;;;;;;5035526;28;20485;-78
2023/01/02 09:26:46;;;;;;;;;;;14.30;1.00;;;;;;5045108;28;19920;-78
2023/01/02 09:29:15;;;;;;;;;;;14.40;1.00;;;;;;5033520;28;20387;-78
2023/01/02 09:31:45;;;;;;;;;;;14.40;1.00;;;;;;5046124;28;20007;-83
2023/01/02 09:34:11;;;;;;;;;;;14.40;1.00;;;;;;5039415;28;20292;-83
2023/01/02 09:42:43;;;;;;;;;;;14.50;1.00;;;;;;5052963;28;19915;-83
2023/01/02 09:45:28;;;;;;;;;;;14.50;1.00;;;;;;5055288;28;20011;-83
2023/01/02 09:48:03;;;;;;;;;;;14.60;1.00;;;;;;5041021;28;19916;-83
2023/01/02 09:50:29;;;;;;;;;;;14.70;1.00;;;;;;5036095;28;20338;-84
2023/01/02 09:53:03;;;;;;;;;;;14.60;1.00;;;;;;5035342;28;19967;-83
2023/01/02 09:55:43;;;;;;;;;;;14.50;1.00;;;;;;5040217;28;20017;-83
2023/01/02 09:58:27;;;;;;;;;;;14.50;1.00;;;;;;5036944;28;19913;-83
2023/01/02 10:01:27;;;;;;;;;;;14.50;1.00;;;;;;5042550;28;19921;-83
2023/01/02 10:03:57;;;;;;;;;;;14.50;1.00;;;;;;5039865;28;19910;-83
2023/01/02 10:06:53;;;;;;;;;;;14.50;1.00;;;;;;5051660;28;19913;-81
2023/01/02 10:09:45;;;;;;;;;;;14.50;1.00;;;;;;5009568;28;19933;-83
2023/01/02 10:12:25;;;;;;;;;;;14.60;1.00;;;;;;5035003;28;19924;-83
2023/01/02 10:14:52;;;;;;;;;;;14.60;1.00;;;;;;5034698;28;19918;-83
2023/01/02 10:17:18;;;;;;;;;;;14.60;1.00;;;;;;5018947;28;19910;-78
2023/01/02 10:20:00;;;;;;;;;;;14.50;1.00;;;;;;5034448;28;19917;-78
2023/01/02 10:25:33;;;;;;;;;;;14.60;1.00;;;;;;5017910;28;20034;-78
2023/01/02 10:28:20;;;;;;;;;;;14.50;1.00;;;;;;5031052;28;19916;-77
2023/01/02 10:30:54;;;;;;;;;;;14.50;1.00;;;;;;5024012;28;20005;-83
2023/01/02 10:33:53;;;;;;;;;;;14.50;1.00;;;;;;4998795;28;20375;-83
2023/01/02 10:36:25;;;;;;;;;;;14.40;1.00;;;;;;4997739;28;20336;-83
2023/01/02 10:38:52;;;;;;;;;;;14.30;1.00;;;;;;5009736;28;19913;-82
2023/01/02 10:41:21;;;;;;;;;;;14.40;1.00;;;;;;4992107;28;19940;-82
2023/01/02 10:44:15;;;;;;;;;;;14.30;1.00;;;;;;5012400;28;19920;-83
2023/01/02 10:46:51;;;;;;;;;;;14.20;1.00;;;;;;4976192;28;19958;-78
2023/01/02 10:49:18;;;;;;;;;;;14.20;1.00;;;;;;4994594;28;19929;-79
2023/01/02 10:52:01;;;;;;;;;;;14.30;1.00;;;;;;4990812;28;20032;-78
2023/01/02 10:54:46;;;;;;;;;;;14.30;1.00;;;;;;4996884;28;19922;-78
2023/01/02 10:57:41;;;;;;;;;;;14.50;1.00;;;;;;4980892;28;20012;-78
2023/01/02 11:00:30;;;;;;;;;;;14.60;1.00;;;;;;4957136;28;20020;-78
2023/01/02 11:02:57;;;;;;;;;;;14.60;1.00;;;;;;4972508;28;19922;-78
2023/01/02 11:05:43;;;;;;;;;;;14.50;1.00;;;;;;4968347;28;20275;-78
2023/01/02 11:08:22;;;;;;;;;;;14.40;1.00;;;;;;4974918;28;19910;-79
2023/01/02 11:10:51;;;;;;;;;;;14.50;1.00;;;;;;4960763;28;21226;-78
2023/01/02 11:13:21;;;;;;;;;;;14.20;1.00;;;;;;4983039;28;19945;-80
2023/01/02 11:15:52;;;;;;;;;;;14.30;1.00;;;;;;4983977;28;19925;-75
2023/01/02 11:18:23;;;;;;;;;;;14.00;1.00;;;;;;4970611;28;20394;-83
2023/01/02 11:20:53;;;;;;;;;;;13.90;1.00;;;;;;4981976;28;20349;-86
2023/01/02 11:23:29;;;;;;;;;;;14.00;1.00;;;;;;4991895;28;20432;-84
2023/01/02 11:26:27;;;;;;;;;;;13.90;1.00;;;;;;4963773;28;19924;-81
2023/01/02 11:29:04;;;;;;;;;;;13.80;1.00;;;;;;4979808;28;19915;-85
2023/01/02 11:31:30;;;;;;;;;;;13.70;1.00;;;;;;4976754;28;20406;-78
2023/01/02 11:34:23;;;;;;;;;;;13.70;1.00;;;;;;4970419;28;19918;-77
2023/01/02 11:40:01;;;;;;;;;;;13.60;1.00;;;;;;5064563;28;19920;-79
2023/01/02 11:45:21;;;;;;;;;;;13.50;1.00;;;;;;5040500;28;19975;-73
2023/01/02 11:47:46;;;;;;;;;;;13.50;1.00;;;;;;5042270;28;19917;-74
2023/01/02 11:50:17;;;;;;;;;;;13.40;1.00;;;;;;5036800;28;20380;-74
2023/01/02 11:52:47;;;;;;;;;;;13.20;1.00;;;;;;5039079;28;19913;-74
2023/01/02 11:55:19;;;;;;;;;;;13.30;1.00;;;;;;5037560;28;20422;-74
2023/01/02 11:57:45;;;;;;;;;;;13.20;1.00;;;;;;5046064;28;19913;-74
2023/01/02 12:00:12;;;;;;;;;;;13.20;1.00;;;;;;5051102;28;20417;-74
2023/01/02 12:02:43;;;;;;;;;;;13.20;1.00;;;;;;5038160;28;19913;-77
2023/01/02 12:05:11;;;;;;;;;;;13.20;1.00;;;;;;5047812;28;20379;-78
2023/01/02 12:07:46;;;;;;;;;;;13.20;1.00;;;;;;5045892;28;19924;-78
2023/01/02 12:10:41;;;;;;;;;;;13.30;1.00;;;;;;5047176;28;19909;-78
2023/01/02 12:13:23;;;;;;;;;;;13.20;1.00;;;;;;5027158;28;19913;-78
2023/01/02 12:16:21;;;;;;;;;;;13.20;1.00;;;;;;5022025;28;19921;-79
2023/01/02 12:18:49;;;;;;;;;;;13.20;1.00;;;;;;5019569;28;20331;-72
2023/01/02 12:21:31;;;;;;;;;;;13.20;1.00;;;;;;5011563;28;20410;-72
2023/01/02 12:24:16;;;;;;;;;;;13.30;1.00;;;;;;5010013;28;19917;-71
2023/01/02 12:26:44;;;;;;;;;;;13.30;1.00;;;;;;5005052;28;20012;-70
2023/01/02 12:29:36;;;;;;;;;;;13.30;1.00;;;;;;5009343;28;19920;-71
2023/01/02 12:32:04;;;;;;;;;;;13.30;1.00;;;;;;4952552;28;19921;-71
2023/01/02 12:34:32;;;;;;;;;;;13.40;1.00;;;;;;4953163;29;19914;-71
2023/01/02 12:36:58;;;;;;;;;;;13.20;1.00;;;;;;4952787;29;19937;-71
2023/01/02 12:39:35;;;;;;;;;;;13.20;1.00;;;;;;4953352;29;20327;-71
2023/01/02 12:42:18;;;;;;;;;;;13.20;1.00;;;;;;4938136;28;19914;-71
2023/01/02 12:44:49;;;;;;;;;;;13.10;1.00;;;;;;4951961;29;20323;-71
2023/01/02 12:47:33;;;;;;;;;;;13.20;1.00;;;;;;4950347;28;19921;-67
2023/01/02 12:50:04;;;;;;;;;;;13.10;1.00;;;;;;4957237;28;19921;-67
2023/01/02 12:52:30;;;;;;;;;;;13.20;1.00;;;;;;4972037;28;20313;-67
2023/01/02 12:55:03;;;;;;;;;;;13.20;1.00;;;;;;4976222;28;19921;-68
2023/01/02 12:57:41;;;;;;;;;;;13.10;1.00;;;;;;4991348;28;19910;-68
2023/01/02 13:00:19;;;;;;;;;;;13.10;1.00;;;;;;4991540;28;19924;-68
2023/01/02 13:03:02;;;;;;;;;;;13.10;1.00;;;;;;4989054;28;19914;-70
2023/01/02 13:05:34;;;;;;;;;;;13.00;1.00;;;;;;4985395;28;20287;-70
2023/01/02 13:08:20;;;;;;;;;;;13.00;1.00;;;;;;4993384;28;20354;-70
2023/01/02 13:10:46;;;;;;;;;;;13.00;1.00;;;;;;5043190;28;19996;-71
2023/01/02 13:13:12;;;;;;;;;;;13.00;1.00;;;;;;5039798;28;19909;-70
2023/01/02 13:15:39;;;;;;;;;;;12.90;1.00;;;;;;5040015;28;20384;-70
2023/01/02 13:18:23;;;;;;;;;;;12.90;1.00;;;;;;5043071;28;19944;-68
2023/01/02 13:21:11;;;;;;;;;;;12.90;1.00;;;;;;5050229;28;19935;-68
2023/01/02 13:23:45;;;;;;;;;;;13.00;1.00;;;;;;5043462;28;19940;-68
2023/01/02 13:26:11;;;;;;;;;;;13.00;1.00;;;;;;5047605;28;19921;-67
2023/01/02 13:28:40;;;;;;;;;;;12.90;1.00;;;;;;5039504;28;20358;-67
2023/01/02 13:31:05;;;;;;;;;;;13.00;1.00;;;;;;5044820;28;19916;-67
2023/01/02 13:33:42;;;;;;;;;;;13.00;1.00;;;;;;5045797;28;19917;-70
2023/01/02 13:36:22;;;;;;;;;;;13.00;1.00;;;;;;5042605;28;19921;-70
2023/01/02 13:38:58;;;;;;;;;;;13.10;1.00;;;;;;5045685;28;19921;-70
2023/01/02 13:41:24;;;;;;;;;;;13.20;1.00;;;;;;5040460;28;19920;-71
2023/01/02 13:43:52;;;;;;;;;;;13.20;1.00;;;;;;5046986;28;19943;-71
2023/01/02 13:46:22;;;;;;;;;;;13.20;1.00;;;;;;5048575;28;19921;-70
2023/01/02 13:48:55;;;;;;;;;;;13.30;1.00;;;;;;5045239;28;20003;-83
2023/01/02 13:51:29;;;;;;;;;;;13.30;1.00;;;;;;5041140;28;19913;-82
2023/01/02 13:54:27;;;;;;;;;;;13.30;1.00;;;;;;5039304;28;19913;-83
2023/01/02 13:57:15;;;;;;;;;;;13.30;1.00;;;;;;5053557;28;19912;-81
2023/01/02 13:59:56;;;;;;;;;;;13.20;1.00;;;;;;5036946;28;19952;-82
2023/01/02 14:02:28;;;;;;;;;;;13.20;1.00;;;;;;5035485;28;19917;-82
2023/01/02 14:05:31;;;;;;;;;;;13.20;1.00;;;;;;5039562;28;20016;-86
2023/01/02 14:08:27;;;;;;;;;;;13.20;1.00;;;;;;5001995;28;20026;-86
2023/01/02 14:10:59;;;;;;;;;;;13.20;1.00;;;;;;4996506;28;19968;-85
2023/01/02 14:13:44;;;;;;;;;;;13.20;1.00;;;;;;4995937;28;20064;-84
2023/01/02 14:16:40;;;;;;;;;;;13.20;1.00;;;;;;5010423;28;19916;-80
2023/01/02 14:19:11;;;;;;;;;;;13.20;1.00;;;;;;5026757;28;19916;-82
2023/01/02 14:22:03;;;;;;;;;;;13.10;1.00;;;;;;4986016;28;20326;-81
2023/01/02 14:25:03;;;;;;;;;;;13.10;1.00;;;;;;5014543;28;19915;-81
2023/01/02 14:27:35;;;;;;;;;;;13.10;1.00;;;;;;4997279;28;19920;-79
2023/01/02 14:30:33;;;;;;;;;;;13.10;1.00;;;;;;5002959;28;19914;-80
2023/01/02 14:33:05;;;;;;;;;;;13.20;1.00;;;;;;5017084;28;19917;-81
2023/01/02 14:35:45;;;;;;;;;;;13.20;1.00;;;;;;5002847;28;20262;-82
2023/01/02 14:38:31;;;;;;;;;;;13.10;1.00;;;;;;5006663;28;20355;-82
2023/01/02 14:43:28;;;;;;;;;;;13.00;1.00;;;;;;5051241;28;19912;-81
2023/01/02 14:44:03;;;;;;;;;;;13.10;1.00;;;;;;5047875;28;19913;-81
2023/01/02 14:46:34;;;;;;;;;;;13.00;1.00;;;;;;5039864;28;19999;-81
2023/01/02 14:52:05;;;;;;;;;;;12.80;1.00;;;;;;5036519;28;20380;-80
2023/01/02 14:54:46;;;;;;;;;;;12.90;1.00;;;;;;5037084;28;19917;-79
2023/01/02 14:57:23;;;;;;;;;;;12.70;1.00;;;;;;5055509;28;19942;-81
2023/01/02 15:00:13;;;;;;;;;;;12.60;1.00;;;;;;5054988;28;20277;-81
2023/01/02 15:05:47;;;;;;;;;;;12.30;1.00;;;;;;5042018;28;20393;-85
2023/01/02 15:08:34;;;;;;;;;;;12.30;1.00;;;;;;5050171;28;19909;-85
2023/01/02 15:14:22;;;;;;;;;;;12.10;1.00;;;;;;5038327;28;20064;-85
2023/01/02 15:20:00;;;;;;;;;;;12.10;8.70;;;;;;5046180;28;19916;-81
2023/01/02 15:22:41;;;;;;;;;;;12.00;12.70;;;;;;5043387;28;19909;-81
2023/01/02 15:25:10;;;;;;;;;;;12.00;14.30;;;;;;5035802;28;19917;-75
2023/01/02 15:27:40;;;;;;;;;;;12.10;17.60;;;;;;5047734;28;19963;-76
2023/01/02 15:30:20;;;;;;;;;;;12.10;11.10;;;;;;5055088;28;19920;-75
2023/01/02 15:32:52;;;;;;;;;;;12.00;7.10;;;;;;5041827;28;19917;-75
2023/01/02 15:35:25;;;;;;;;;;;11.90;3.80;;;;;;5047003;28;19913;-80
2023/01/02 15:38:16;;;;;;;;;;;11.90;1.00;;;;;;5054587;28;19920;-79
2023/01/02 15:40:46;;;;;;;;;;;11.80;4.20;;;;;;5054864;28;19917;-79
2023/01/02 15:46:08;;;;;;;;;;;11.50;12.00;;;;;;5037004;28;20332;-79
2023/01/02 15:48:41;;;;;;;;;;;11.40;21.60;;;;;;5042472;28;19917;-78
2023/01/02 15:51:15;;;;;;;;;;;11.40;26.90;;;;;;5034737;28;19909;-75
2023/01/02 15:53:41;;;;;;;;;;;11.40;31.80;;;;;;5042324;28;19909;-74
2023/01/02 15:56:30;;;;;;;;;;;11.40;43.10;;;;;;5037470;28;19975;-74
2023/01/02 15:58:55;;;;;;;;;;;11.30;43.20;;;;;;5049854;28;19916;-74
2023/01/02 16:01:21;;;;;;;;;;;11.30;43.20;;;;;;5054300;28;20334;-75
2023/01/02 16:03:51;;;;;;;;;;;11.20;42.90;;;;;;5058007;28;19936;-79
2023/01/02 16:06:35;;;;;;;;;;;11.30;43.00;;;;;;5033791;28;19975;-81
2023/01/02 16:09:30;;;;;;;;;;;11.30;43.20;;;;;;5034643;28;19919;-79
2023/01/02 16:11:59;;;;;;;;;;;11.30;43.00;;;;;;4995489;28;20281;-82
2023/01/02 16:17:29;;;;;;;;;;;11.10;42.80;;;;;;5000209;28;19925;-81
2023/01/02 16:19:59;;;;;;;;;;;11.20;42.90;;;;;;5012003;28;19913;-79
2023/01/02 16:22:40;;;;;;;;;;;11.10;43.00;;;;;;5008327;28;20262;-79
2023/01/02 16:25:16;;;;;;;;;;;11.20;43.00;;;;;;5004443;28;20481;-80
2023/01/02 16:28:00;;;;;;;;;;;11.10;42.90;;;;;;5004769;28;20001;-80
2023/01/02 16:30:46;;;;;;;;;;;11.00;42.80;;;;;;5011512;28;19959;-79
2023/01/02 16:33:22;;;;;;;;;;;10.90;43.70;;;;;;4994884;28;19921;-79
2023/01/02 16:36:10;;;;;;;;;;;10.90;45.40;;;;;;4996025;28;19965;-79
2023/01/02 16:39:04;;;;;;;;;;;11.00;44.60;;;;;;5007827;28;19920;-78
2023/01/02 16:44:40;;;;;;;;;;;11.00;45.50;;;;;;4998271;28;19944;-79
2023/01/02 16:47:10;;;;;;;;;;;11.00;42.60;;;;;;5000527;28;19909;-85
2023/01/02 16:49:40;;;;;;;;;;;11.00;42.80;;;;;;5037069;28;19909;-78
2023/01/02 16:52:16;;;;;;;;;;;11.00;42.90;;;;;;5049403;28;20019;-79
2023/01/02 16:54:58;;;;;;;;;;;10.90;42.70;;;;;;5037720;28;19909;-79